Terminal Aerodrome Forecast
Issued by NWS Sterling, VA

Current Version | Previous Version | Graphics & Text | Print | Product List | Glossary On
Versions: 1 2 3 4 5 6 7 8 9 10 11 12 13 14 15 16 17 18 19 20 21 22 23
000
FTUS41 KLWX 301729
TAFIAD
TAF
KIAD 301729Z 3018/3124 19010KT P6SM SCT050 BKN100
     FM302200 19010KT P6SM SCT060
     FM310200 18006KT P6SM SCT050
     FM310600 16005KT P6SM BKN040
     FM311400 20006KT P6SM SCT110
     FM311600 20007KT P6SM BKN060=

USA.gov is the U.S. government's official web portal to all federal, state and local government web resources and services.